< < Back
Terminal Aerodrome Forecast


Current Version              Previous Versions:   1  2  3  4  5  6  7  8  9  

Terminal Aerodrome Forecast

533
FTUS44 KBMX 312320
TAFMGM
TAF
KMGM 312320Z 0100/0124 00000KT P6SM SCT250
     FM010800 00000KT 3SM BR SCT007
     FM011500 01005KT P6SM SCT250=

Latest METAR

056
SAUS80 KWBC 011400 RRE
MTRMGM
METAR KMGM 011353Z 06003KT 10SM CLR 27/22 A3011 RMK AO2 SLP191
T02720217


USA.gov is the U.S. government's official web portal to all federal, state and local government web resources and services.